createdAt,value
2022-10-07T00:00:53.727Z,102882.91
2022-10-07T00:03:22.405Z,102887.31
2022-10-07T00:06:00.311Z,102886.44
2022-10-07T00:08:27.314Z,102891.69
2022-10-07T00:10:54.219Z,102891.66
2022-10-07T00:13:21.209Z,102886.41
2022-10-07T00:15:47.943Z,102881.16
2022-10-07T00:18:14.676Z,102882.91
2022-10-07T00:20:41.372Z,102875.91
2022-10-07T00:23:09.362Z,102878.56
2022-10-07T00:25:39.882Z,102882.91
2022-10-07T00:28:06.728Z,102869.78
2022-10-07T00:30:33.717Z,102863.66
2022-10-07T00:33:00.689Z,102862.78
2022-10-07T00:35:27.647Z,102858.38
2022-10-07T00:37:54.749Z,102864.53
2022-10-07T00:40:21.501Z,102861.91
2022-10-07T00:42:48.290Z,102857.53
2022-10-07T00:45:17.760Z,102858.41
2022-10-07T00:47:48.470Z,102854.88
2022-10-07T00:50:23.784Z,102860.16
2022-10-07T00:52:55.451Z,102854.03
2022-10-07T00:55:26.689Z,102854.00
2022-10-07T00:57:57.310Z,102847.00
2022-10-07T01:00:24.215Z,102842.63
2022-10-07T01:02:52.062Z,102839.16
2022-10-07T01:05:20.631Z,102844.41
2022-10-07T01:07:49.861Z,102828.63
2022-10-07T01:10:20.219Z,102834.75
2022-10-07T01:13:14.589Z,102823.38
2022-10-07T01:16:12.739Z,102819.00
2022-10-07T01:18:49.571Z,102819.00
2022-10-07T01:21:22.327Z,102801.50
2022-10-07T01:24:15.133Z,102805.88
2022-10-07T01:27:03.354Z,102804.97
2022-10-07T01:29:41.179Z,102796.25
2022-10-07T01:32:32.546Z,102795.34
2022-10-07T01:35:05.935Z,102797.97
2022-10-07T01:37:37.892Z,102789.22
2022-10-07T01:40:32.229Z,102790.06
2022-10-07T01:43:01.643Z,102792.72
2022-10-07T01:45:31.054Z,102787.44
2022-10-07T01:47:59.460Z,102783.94
2022-10-07T01:50:29.613Z,102782.16
2022-10-07T01:53:26.617Z,102786.53
2022-10-07T01:56:42.092Z,102787.41
2022-10-07T01:59:27.366Z,102780.41
2022-10-07T02:02:11.166Z,102787.41
2022-10-07T02:04:41.296Z,102781.28
2022-10-07T02:07:46.130Z,102783.91
2022-10-07T02:10:31.000Z,102780.44
2022-10-07T02:13:04.334Z,102786.56
2022-10-07T02:15:42.732Z,102776.06
2022-10-07T02:18:16.378Z,102779.56
2022-10-07T02:20:48.077Z,102775.19
2022-10-07T02:23:17.839Z,102774.31
2022-10-07T02:25:48.935Z,102763.81
2022-10-07T02:28:22.794Z,102768.19
2022-10-07T02:30:56.002Z,102773.44
2022-10-07T02:33:27.718Z,102767.34
2022-10-07T02:36:10.734Z,102751.56
2022-10-07T02:38:39.704Z,102752.47
2022-10-07T02:41:12.941Z,102750.69
2022-10-07T02:43:56.234Z,102745.47
2022-10-07T02:46:32.648Z,102739.34
2022-10-07T02:49:07.695Z,102735.81
2022-10-07T02:51:46.563Z,102735.81
2022-10-07T02:54:18.048Z,102729.69
2022-10-07T02:56:47.545Z,102734.94
2022-10-07T02:59:16.616Z,102728.81
2022-10-07T03:01:48.411Z,102722.66
2022-10-07T03:04:16.200Z,102727.94
2022-10-07T03:06:44.286Z,102728.81
2022-10-07T03:09:11.955Z,102722.69
2022-10-07T03:11:40.671Z,102725.31
2022-10-07T03:14:08.384Z,102725.28
2022-10-07T03:16:35.431Z,102727.94
2022-10-07T03:19:02.550Z,102729.66
2022-10-07T03:21:40.545Z,102725.28
2022-10-07T03:24:08.029Z,102734.03
2022-10-07T03:26:41.271Z,102724.41
2022-10-07T03:29:10.232Z,102727.88
2022-10-07T03:31:37.249Z,102727.00
2022-10-07T03:34:04.146Z,102739.28
2022-10-07T03:36:31.515Z,102740.16
2022-10-07T03:38:58.590Z,102741.91
2022-10-07T03:41:25.766Z,102742.78
2022-10-07T03:43:57.478Z,102741.00
2022-10-07T03:46:25.572Z,102739.25
2022-10-07T03:48:52.762Z,102737.50
2022-10-07T03:51:20.001Z,102739.22
2022-10-07T03:53:46.832Z,102740.09
2022-10-07T03:56:13.849Z,102741.84
2022-10-07T03:58:43.053Z,102741.84
2022-10-07T04:01:15.781Z,102747.94
2022-10-07T04:03:56.035Z,102740.94
2022-10-07T04:06:24.111Z,102751.44
2022-10-07T04:08:53.025Z,102752.31
2022-10-07T04:11:20.004Z,102747.03
2022-10-07T04:13:48.195Z,102748.78
2022-10-07T04:16:17.890Z,102747.03
2022-10-07T04:18:45.382Z,102750.53
2022-10-07T04:21:12.410Z,102759.28
2022-10-07T04:23:41.420Z,102761.88
2022-10-07T04:26:10.527Z,102759.25
2022-10-07T04:28:40.696Z,102762.78
2022-10-07T04:31:11.875Z,102768.00
2022-10-07T04:33:46.318Z,102764.50
2022-10-07T04:36:18.489Z,102778.50
2022-10-07T04:38:51.406Z,102773.25
2022-10-07T04:41:22.571Z,102768.84
2022-10-07T04:43:54.239Z,102781.03
2022-10-07T04:46:24.981Z,102779.28
2022-10-07T04:48:59.390Z,102780.09
2022-10-07T04:51:27.844Z,102781.91
2022-10-07T04:53:57.950Z,102787.13
2022-10-07T04:56:33.543Z,102779.25
2022-10-07T04:59:03.383Z,102788.88
2022-10-07T05:01:30.738Z,102796.78
2022-10-07T05:03:58.190Z,102794.13
2022-10-07T05:06:26.339Z,102793.25
2022-10-07T05:08:54.333Z,102797.59
2022-10-07T05:11:22.743Z,102798.50
2022-10-07T05:13:57.890Z,102793.25
2022-10-07T05:16:25.803Z,102798.50
2022-10-07T05:18:52.564Z,102796.75
2022-10-07T05:21:19.941Z,102790.66
2022-10-07T05:23:49.223Z,102795.88
2022-10-07T05:26:21.609Z,102799.34
2022-10-07T05:28:53.524Z,102811.63
2022-10-07T05:31:27.747Z,102816.03
2022-10-07T05:33:57.775Z,102809.88
2022-10-07T05:36:26.220Z,102816.84
2022-10-07T05:38:58.125Z,102823.00
2022-10-07T05:41:30.245Z,102817.78
2022-10-07T05:44:01.090Z,102822.19
2022-10-07T05:46:28.281Z,102818.69
2022-10-07T05:48:58.056Z,102824.78
2022-10-07T05:51:29.940Z,102819.56
2022-10-07T05:53:58.552Z,102823.91
2022-10-07T05:56:32.599Z,102823.06
2022-10-07T05:58:59.397Z,102824.81
2022-10-07T06:01:29.025Z,102827.47
2022-10-07T06:03:58.526Z,102829.22
2022-10-07T06:06:30.173Z,102835.38
2022-10-07T06:09:19.850Z,102838.88
2022-10-07T06:12:06.642Z,102838.91
2022-10-07T06:14:35.840Z,102848.56
2022-10-07T06:17:04.766Z,102841.56
2022-10-07T06:19:32.000Z,102854.69
2022-10-07T06:22:01.591Z,102847.72
2022-10-07T06:24:28.399Z,102854.75
2022-10-07T06:26:55.986Z,102864.34
2022-10-07T06:29:23.994Z,102861.81
2022-10-07T06:31:51.011Z,102860.94
2022-10-07T06:34:19.263Z,102863.59
2022-10-07T06:36:46.453Z,102865.34
2022-10-07T06:39:16.696Z,102871.50
2022-10-07T06:41:44.357Z,102858.38
2022-10-07T06:44:38.764Z,102866.28
2022-10-07T06:47:11.623Z,102854.00
2022-10-07T06:49:39.833Z,102854.91
2022-10-07T06:52:07.011Z,102854.03
2022-10-07T06:54:34.632Z,102845.25
2022-10-07T06:57:01.558Z,102844.41
2022-10-07T06:59:30.128Z,102851.41
2022-10-07T07:02:03.416Z,102840.00
2022-10-07T07:04:31.627Z,102812.81
2022-10-07T07:06:58.733Z,102804.91
2022-10-07T07:09:26.144Z,102804.84
2022-10-07T07:11:56.405Z,102796.94
2022-10-07T07:14:28.804Z,102789.00
2022-10-07T07:17:04.073Z,102779.34
2022-10-07T07:19:31.159Z,102769.72
2022-10-07T07:21:58.537Z,102762.66
2022-10-07T07:24:27.006Z,102772.22
2022-10-07T07:26:53.895Z,102769.53
2022-10-07T07:29:22.313Z,102756.34
2022-10-07T07:31:54.755Z,102736.88
2022-10-07T07:34:25.755Z,102730.66
2022-10-07T07:36:52.740Z,102717.31
2022-10-07T07:39:23.079Z,102702.34
2022-10-07T07:41:56.223Z,102684.72
2022-10-07T07:44:24.372Z,102676.63
2022-10-07T07:46:54.392Z,102655.53
2022-10-07T07:49:24.089Z,102642.22
2022-10-07T07:51:51.910Z,102625.41
2022-10-07T07:54:27.406Z,102619.91
2022-10-07T07:56:55.754Z,102611.75
2022-10-07T07:59:25.198Z,102598.34
2022-10-07T08:01:53.462Z,102584.00
2022-10-07T08:04:20.262Z,102558.38
2022-10-07T08:06:47.408Z,102550.59
2022-10-07T08:09:14.425Z,102547.19
2022-10-07T08:11:45.259Z,102527.09
2022-10-07T08:14:16.326Z,102490.75
2022-10-07T08:16:44.941Z,102460.38
2022-10-07T08:19:12.423Z,102415.03
2022-10-07T08:21:39.769Z,102375.97
2022-10-07T08:24:12.409Z,102352.56
2022-10-07T08:26:40.119Z,102340.22
2022-10-07T08:29:11.204Z,102318.84
2022-10-07T08:31:38.163Z,102310.72
2022-10-07T08:34:06.342Z,102304.25
2022-10-07T08:36:34.082Z,102285.16
2022-10-07T08:39:02.091Z,102278.09
2022-10-07T08:41:34.860Z,102273.56
2022-10-07T08:44:16.698Z,102270.59
2022-10-07T08:46:49.670Z,102261.38
2022-10-07T08:49:20.056Z,102258.25
2022-10-07T08:51:50.976Z,102253.56
2022-10-07T08:54:24.355Z,102247.97
2022-10-07T08:56:51.392Z,102235.63
2022-10-07T08:59:18.105Z,102229.34
2022-10-07T09:02:04.588Z,102237.13
2022-10-07T09:04:46.248Z,102226.06
2022-10-07T09:07:31.390Z,102234.25
2022-10-07T09:10:06.948Z,102228.38
2022-10-07T09:12:41.813Z,102223.63
2022-10-07T09:15:19.149Z,102217.06
2022-10-07T09:17:54.282Z,102205.00
2022-10-07T09:20:27.225Z,102206.19
2022-10-07T09:22:57.519Z,102191.63
2022-10-07T09:25:27.759Z,102200.59
2022-10-07T09:27:55.053Z,102198.16
2022-10-07T09:30:23.601Z,102192.84
2022-10-07T09:32:56.205Z,102195.06
2022-10-07T09:35:26.313Z,102190.38
2022-10-07T09:38:09.287Z,102184.88
2022-10-07T09:41:01.095Z,102176.50
2022-10-07T09:43:29.194Z,102177.25
2022-10-07T09:45:57.103Z,102177.63
2022-10-07T09:48:27.394Z,102164.41
2022-10-07T09:51:16.104Z,102171.63
2022-10-07T09:54:04.133Z,102167.34
2022-10-07T09:56:42.864Z,102177.31
2022-10-07T09:59:24.187Z,102161.06
2022-10-07T10:02:15.428Z,102165.69
2022-10-07T10:04:54.318Z,102157.72
2022-10-07T10:07:26.948Z,102144.34
2022-10-07T10:09:57.222Z,102146.41
2022-10-07T10:12:26.492Z,102148.59
2022-10-07T10:14:56.092Z,102145.34
2022-10-07T10:17:39.697Z,102142.47
2022-10-07T10:20:32.729Z,102134.84
2022-10-07T10:23:02.123Z,102137.56
2022-10-07T10:25:50.273Z,102128.16
2022-10-07T10:28:50.255Z,102116.50
2022-10-07T10:31:50.418Z,102118.00
2022-10-07T10:34:35.489Z,102118.31
2022-10-07T10:37:14.669Z,102118.34
2022-10-07T10:40:03.387Z,102104.03
2022-10-07T10:42:59.337Z,102108.19
2022-10-07T10:45:32.230Z,102095.47
2022-10-07T10:48:36.991Z,102096.66
2022-10-07T10:51:25.243Z,102091.66
2022-10-07T10:54:13.173Z,102085.53
2022-10-07T10:57:04.991Z,102078.00
2022-10-07T11:00:05.047Z,102081.97
2022-10-07T11:02:38.021Z,102078.09
2022-10-07T11:05:25.499Z,102085.38
2022-10-07T11:08:38.949Z,102073.38
2022-10-07T11:11:21.968Z,102067.66
2022-10-07T11:13:54.625Z,102069.47
2022-10-07T11:16:27.799Z,102073.06
2022-10-07T11:19:39.174Z,102076.72
2022-10-07T11:22:15.149Z,102065.31
2022-10-07T11:24:54.898Z,102065.50
2022-10-07T11:27:29.618Z,102062.97
2022-10-07T11:30:03.533Z,102055.22
2022-10-07T11:33:05.298Z,102053.84
2022-10-07T11:35:36.087Z,102050.47
2022-10-07T11:38:13.093Z,102042.09
2022-10-07T11:40:57.351Z,102036.81
2022-10-07T11:43:39.049Z,102028.28
2022-10-07T11:46:20.971Z,102026.53
2022-10-07T11:48:52.558Z,102013.50
2022-10-07T11:51:34.370Z,102014.44
2022-10-07T11:54:04.407Z,102009.06
2022-10-07T11:56:44.530Z,102010.19
2022-10-07T11:59:26.798Z,102011.44
2022-10-07T12:01:53.727Z,102004.16
2022-10-07T12:04:29.674Z,102006.34
2022-10-07T12:07:33.778Z,102003.22
2022-10-07T12:10:03.542Z,102006.25
2022-10-07T12:12:42.408Z,102003.91
2022-10-07T12:15:28.947Z,102009.66
2022-10-07T12:18:04.802Z,101997.97
2022-10-07T12:20:34.652Z,102000.41
2022-10-07T12:23:22.616Z,101997.38
2022-10-07T12:26:31.045Z,101998.34
2022-10-07T12:28:58.784Z,101988.63
2022-10-07T12:31:25.608Z,101986.34
2022-10-07T12:34:10.097Z,101980.84
2022-10-07T12:36:42.892Z,101975.88
2022-10-07T12:39:09.810Z,101978.63
2022-10-07T12:41:39.973Z,101985.13
2022-10-07T12:44:22.822Z,101965.41
2022-10-07T12:46:50.958Z,101954.94
2022-10-07T12:49:41.051Z,101946.38
2022-10-07T12:52:14.775Z,101936.63
2022-10-07T12:54:46.378Z,101929.16
2022-10-07T12:57:18.412Z,101928.44
2022-10-07T13:00:15.783Z,101916.38
2022-10-07T13:03:17.087Z,101919.00
2022-10-07T13:06:09.877Z,101919.84
2022-10-07T13:08:57.191Z,101917.47
2022-10-07T13:11:33.078Z,101923.50
2022-10-07T13:14:13.791Z,101914.53
2022-10-07T13:16:40.520Z,101916.84
2022-10-07T13:19:21.847Z,101914.81
2022-10-07T13:22:12.580Z,101912.56
2022-10-07T13:24:49.904Z,101919.06
2022-10-07T13:27:32.654Z,101917.34
2022-10-07T13:30:01.868Z,101925.78
2022-10-07T13:32:31.309Z,101917.47
2022-10-07T13:34:59.852Z,101912.63
2022-10-07T13:37:33.110Z,101919.44
2022-10-07T13:40:39.396Z,101912.47
2022-10-07T13:43:08.747Z,101898.38
2022-10-07T13:45:45.146Z,101897.63
2022-10-07T13:48:22.166Z,101900.44
2022-10-07T13:50:50.735Z,101905.13
2022-10-07T13:53:28.454Z,101899.66
2022-10-07T13:56:25.682Z,101890.72
2022-10-07T13:58:55.139Z,101876.94
2022-10-07T14:01:27.199Z,101876.72
2022-10-07T14:04:10.448Z,101869.50
2022-10-07T14:06:43.859Z,101874.56
2022-10-07T14:09:35.734Z,101872.88
2022-10-07T14:12:09.194Z,101862.66
2022-10-07T14:14:52.332Z,101870.72
2022-10-07T14:17:43.195Z,101865.03
2022-10-07T14:20:38.601Z,101863.53
2022-10-07T14:23:07.938Z,101851.81
2022-10-07T14:25:53.158Z,101849.63
2022-10-07T14:28:29.237Z,101843.06
2022-10-07T14:31:40.450Z,101840.38
2022-10-07T14:34:37.289Z,101846.09
2022-10-07T14:37:27.274Z,101841.69
2022-10-07T14:39:57.777Z,101843.28
2022-10-07T14:42:27.556Z,101835.53
2022-10-07T14:44:56.424Z,101841.84
2022-10-07T14:47:28.469Z,101848.22
2022-10-07T14:49:58.149Z,101839.69
2022-10-07T14:52:43.575Z,101846.56
2022-10-07T14:55:27.850Z,101837.63
2022-10-07T14:57:55.273Z,101816.59
2022-10-07T15:00:34.888Z,101823.56
2022-10-07T15:03:06.055Z,101834.88
2022-10-07T15:05:33.946Z,101824.97
2022-10-07T15:08:01.479Z,101831.56
2022-10-07T15:10:28.812Z,101830.97
2022-10-07T15:12:56.148Z,101842.19
2022-10-07T15:15:23.058Z,101828.19
2022-10-07T15:17:49.886Z,101825.09
2022-10-07T15:20:17.541Z,101832.59
2022-10-07T15:22:45.904Z,101831.31
2022-10-07T15:25:15.223Z,101831.72
2022-10-07T15:27:42.852Z,101823.19
2022-10-07T15:30:10.520Z,101822.31
2022-10-07T15:32:37.244Z,101827.16
2022-10-07T15:35:04.207Z,101815.81
2022-10-07T15:37:32.304Z,101817.38
2022-10-07T15:39:59.125Z,101820.03
2022-10-07T15:42:26.436Z,101818.31
2022-10-07T15:44:54.235Z,101813.03
2022-10-07T15:47:21.012Z,101818.53
2022-10-07T15:49:49.128Z,101815.88
2022-10-07T15:52:16.150Z,101806.66
2022-10-07T15:54:43.615Z,101812.25
2022-10-07T15:57:10.357Z,101814.66
2022-10-07T15:59:37.175Z,101813.88
2022-10-07T16:02:05.940Z,101813.28
2022-10-07T16:04:32.988Z,101808.75
2022-10-07T16:06:59.868Z,101807.97
2022-10-07T16:09:26.782Z,101802.81
2022-10-07T16:11:54.005Z,101805.19
2022-10-07T16:14:20.807Z,101795.28
2022-10-07T16:16:47.553Z,101795.78
2022-10-07T16:19:14.359Z,101795.41
2022-10-07T16:21:42.766Z,101794.03
2022-10-07T16:24:18.053Z,101792.72
2022-10-07T16:26:45.810Z,101790.47
2022-10-07T16:29:34.169Z,101794.53
2022-10-07T16:32:01.366Z,101789.06
2022-10-07T16:34:28.729Z,101800.13
2022-10-07T16:36:56.897Z,101797.09
2022-10-07T16:39:24.057Z,101791.59
2022-10-07T16:41:55.501Z,101797.31
2022-10-07T16:44:22.463Z,101797.53
2022-10-07T16:46:49.693Z,101806.22
2022-10-07T16:49:18.198Z,101788.00
2022-10-07T16:51:46.470Z,101791.09
2022-10-07T16:54:16.702Z,101799.34
2022-10-07T16:56:49.862Z,101800.50
2022-10-07T16:59:24.447Z,101786.78
2022-10-07T17:01:56.458Z,101803.09
2022-10-07T17:04:24.985Z,101802.84
2022-10-07T17:06:52.165Z,101797.94
2022-10-07T17:09:18.946Z,101793.63
2022-10-07T17:11:46.687Z,101797.56
2022-10-07T17:14:19.030Z,101806.25
2022-10-07T17:16:56.035Z,101792.28
2022-10-07T17:19:25.838Z,101798.81
2022-10-07T17:21:54.397Z,101794.03
2022-10-07T17:24:22.937Z,101794.66
2022-10-07T17:26:52.368Z,101791.69
2022-10-07T17:29:20.828Z,101791.34
2022-10-07T17:31:50.528Z,101782.66
2022-10-07T17:34:19.921Z,101792.06
2022-10-07T17:36:47.979Z,101787.19
2022-10-07T17:39:15.666Z,101787.13
2022-10-07T17:41:42.461Z,101794.22
2022-10-07T17:44:11.709Z,101797.88
2022-10-07T17:46:40.002Z,101790.09
2022-10-07T17:49:09.371Z,101792.78
2022-10-07T17:51:37.463Z,101797.34
2022-10-07T17:54:06.028Z,101799.13
2022-10-07T17:56:34.648Z,101798.22
2022-10-07T17:59:01.885Z,101791.88
2022-10-07T18:01:30.969Z,101792.91
2022-10-07T18:04:00.307Z,101794.53
2022-10-07T18:06:33.694Z,101792.78
2022-10-07T18:09:04.483Z,101792.06
2022-10-07T18:11:50.517Z,101786.59
2022-10-07T18:14:54.105Z,101787.84
2022-10-07T18:17:21.378Z,101788.22
2022-10-07T18:19:48.229Z,101781.50
2022-10-07T18:22:15.069Z,101782.28
2022-10-07T18:24:42.410Z,101785.31
2022-10-07T18:27:09.245Z,101782.81
2022-10-07T18:29:38.916Z,101777.38
2022-10-07T18:32:06.972Z,101779.06
2022-10-07T18:34:34.173Z,101777.03
2022-10-07T18:37:01.613Z,101780.50
2022-10-07T18:39:29.583Z,101779.00
2022-10-07T18:41:56.968Z,101785.63
2022-10-07T18:44:24.046Z,101794.88
2022-10-07T18:46:51.530Z,101793.47
2022-10-07T18:49:18.439Z,101802.44
2022-10-07T18:51:47.112Z,101800.84
2022-10-07T18:54:13.983Z,101803.69
2022-10-07T18:56:41.606Z,101802.91
2022-10-07T18:59:09.978Z,101808.84
2022-10-07T19:01:37.698Z,101811.53
2022-10-07T19:04:07.065Z,101802.66
2022-10-07T19:06:36.862Z,101817.50
2022-10-07T19:09:09.127Z,101815.97
2022-10-07T19:11:35.922Z,101812.41
2022-10-07T19:14:03.346Z,101804.03
2022-10-07T19:16:35.570Z,101794.88
2022-10-07T19:19:12.215Z,101788.88
2022-10-07T19:21:39.474Z,101783.44
2022-10-07T19:24:07.219Z,101777.66
2022-10-07T19:26:37.108Z,101780.09
2022-10-07T19:29:05.829Z,101779.00
2022-10-07T19:31:35.675Z,101779.00
2022-10-07T19:34:12.121Z,101766.63
2022-10-07T19:36:42.496Z,101756.94
2022-10-07T19:39:10.659Z,101758.03
2022-10-07T19:41:37.765Z,101754.00
2022-10-07T19:44:05.579Z,101748.72
2022-10-07T19:46:33.626Z,101744.63
2022-10-07T19:49:02.046Z,101742.88
2022-10-07T19:51:30.996Z,101737.81
2022-10-07T19:53:59.416Z,101738.72
2022-10-07T19:56:31.838Z,101735.88
2022-10-07T19:59:01.496Z,101730.88
2022-10-07T20:01:34.427Z,101730.00
2022-10-07T20:04:06.928Z,101722.22
2022-10-07T20:06:38.810Z,101719.25
2022-10-07T20:09:07.568Z,101717.63
2022-10-07T20:11:34.686Z,101715.25
2022-10-07T20:14:02.932Z,101712.56
2022-10-07T20:16:31.174Z,101707.06
2022-10-07T20:19:05.747Z,101710.84
2022-10-07T20:21:35.866Z,101696.25
2022-10-07T20:24:04.012Z,101697.00
2022-10-07T20:26:33.892Z,101696.97
2022-10-07T20:29:02.165Z,101690.94
2022-10-07T20:31:32.049Z,101690.16
2022-10-07T20:34:00.166Z,101685.34
2022-10-07T20:36:32.034Z,101684.88
2022-10-07T20:39:37.404Z,101687.53
2022-10-07T20:42:24.850Z,101678.84
2022-10-07T20:44:52.602Z,101672.63
2022-10-07T20:47:20.852Z,101664.00
2022-10-07T20:49:50.547Z,101668.53
2022-10-07T20:52:23.064Z,101668.63
2022-10-07T20:54:51.123Z,101672.25
2022-10-07T20:57:33.341Z,101669.47
2022-10-07T21:00:00.153Z,101670.25
2022-10-07T21:02:28.505Z,101677.38
2022-10-07T21:04:55.382Z,101675.00
2022-10-07T21:07:22.194Z,101675.84
2022-10-07T21:09:49.102Z,101657.69
2022-10-07T21:12:18.069Z,101665.59
2022-10-07T21:14:44.979Z,101667.31
2022-10-07T21:17:12.371Z,101674.28
2022-10-07T21:19:40.053Z,101666.25
2022-10-07T21:22:07.708Z,101666.22
2022-10-07T21:24:34.815Z,101673.06
2022-10-07T21:27:06.877Z,101666.59
2022-10-07T21:29:37.428Z,101653.97
2022-10-07T21:32:06.474Z,101644.13
2022-10-07T21:34:33.321Z,101651.34
2022-10-07T21:37:00.635Z,101637.63
2022-10-07T21:39:27.505Z,101635.81
2022-10-07T21:41:54.995Z,101633.47
2022-10-07T21:44:21.769Z,101640.59
2022-10-07T21:46:48.579Z,101623.81
2022-10-07T21:49:16.247Z,101636.88
2022-10-07T21:51:43.911Z,101628.47
2022-10-07T21:54:14.512Z,101615.19
2022-10-07T21:56:43.564Z,101607.59
2022-10-07T21:59:10.406Z,101601.22
2022-10-07T22:01:38.642Z,101607.16
2022-10-07T22:04:06.107Z,101600.06
2022-10-07T22:06:51.878Z,101592.28
2022-10-07T22:09:21.103Z,101596.31
2022-10-07T22:11:48.784Z,101591.72
2022-10-07T22:14:15.774Z,101585.69
2022-10-07T22:16:42.575Z,101581.09
2022-10-07T22:19:10.722Z,101580.25
2022-10-07T22:21:40.271Z,101584.31
2022-10-07T22:24:08.455Z,101572.88
2022-10-07T22:26:45.733Z,101570.28
2022-10-07T22:29:14.125Z,101564.72
2022-10-07T22:31:41.898Z,101556.22
2022-10-07T22:34:08.791Z,101559.28
2022-10-07T22:36:36.886Z,101565.63
2022-10-07T22:39:03.967Z,101565.69
2022-10-07T22:41:30.975Z,101565.84
2022-10-07T22:43:59.075Z,101559.56
2022-10-07T22:46:27.821Z,101566.75
2022-10-07T22:48:58.346Z,101560.72
2022-10-07T22:51:29.501Z,101560.81
2022-10-07T22:53:56.954Z,101559.09
2022-10-07T22:56:26.295Z,101560.09
2022-10-07T22:58:58.154Z,101558.50
2022-10-07T23:01:28.553Z,101566.34
2022-10-07T23:03:56.199Z,101566.06
2022-10-07T23:06:23.136Z,101569.38
2022-10-07T23:08:49.987Z,101583.34
2022-10-07T23:11:20.061Z,101569.66
2022-10-07T23:13:46.962Z,101571.16
2022-10-07T23:16:22.566Z,101569.44
2022-10-07T23:18:50.453Z,101575.94
2022-10-07T23:21:23.352Z,101574.63
2022-10-07T23:23:52.181Z,101590.13
2022-10-07T23:26:22.744Z,101599.03
2022-10-07T23:28:51.608Z,101603.41
2022-10-07T23:31:21.291Z,101629.59
2022-10-07T23:33:49.866Z,101647.47
2022-10-07T23:36:20.119Z,101668.78
2022-10-07T23:38:47.960Z,101694.66
2022-10-07T23:41:18.204Z,101718.63
2022-10-07T23:43:45.084Z,101729.53
2022-10-07T23:46:14.345Z,101761.16
2022-10-07T23:48:42.200Z,101792.16
2022-10-07T23:51:11.692Z,101815.94
2022-10-07T23:53:39.227Z,101832.72
2022-10-07T23:56:06.437Z,101851.41
2022-10-07T23:58:34.365Z,101882.09
